KLFT

Lafayette Regional / Paul Fournet Field Airport

Lafayette, Louisiana, USA
KLFT 221742Z 2218/2318 28008KT P6SM BKN250 FM230100 27006KT P6SM SKC TEMPO 2312/2315 BKN010
Issued Valid From Valid To
Jul-22 @ 17:42 UTC
(3 hours ago)
Jul-22 @ 18:00 UTC
(2 hours ago)
Jul-23 @ 18:00 UTC
(in 22 hours)
Jul-22 @ 18:00 to Jul-23 @ 01:00
KLFT 221742Z 2218/2318 28008KT P6SM BKN250
Wind Visibility Clouds
280° at 8 knots Greater than 6 miles
  • Broken at 25,000' AGL
From Jul-23 @ 01:00 to Jul-23 @ 18:00
FM230100 27006KT P6SM SKC
Wind Visibility Clouds
270° at 6 knots Greater than 6 miles
  • Clear skies
Temporary Jul-23 @ 12:00 to Jul-23 @ 15:00
TEMPO 2312/2315 BKN010
Clouds
  • Broken at 1,000' AGL
KLFT 221742Z 2218/2318 28008KT P6SM BKN250 FM230100 27006KT P6SM SKC TEMPO 2312/2315 BKN010
Issued Jul-22 @ 17:42 UTC
(3 hours ago)
Valid From Jul-22 @ 18:00 UTC
(2 hours ago)
Valid To Jul-23 @ 18:00 UTC
(in 22 hours)
Jul-22 @ 18:00 - Jul-23 @ 01:00
Wind Visibility
280° at 8 knots Greater than 6 miles
Clouds
  • Broken at 25,000' AGL
From Jul-23 @ 01:00 - Jul-23 @ 18:00
Wind Visibility
270° at 6 knots Greater than 6 miles
Clouds
  • Clear skies
Temporary Jul-23 @ 12:00 - Jul-23 @ 15:00
Clouds
  • Broken at 1,000' AGL